Time;durP1;ratioP1;P1;durP2;ratioP2;P2;SDS_P1;SDS_P2;PMS_P1;PMS_P2;Temp;Humidity;BMP_temperature;BMP_pressure;BME280_temperature;BME280_humidity;BME280_pressure;Samples;Min_cycle;Max_cycle;Signal;HPM_P1;HPM_P2
2021/11/06 00:01:49;;;;;;;1.50;0.70;;;20.20;61.20;;;;;;4946971;28;92520;-62
2021/11/06 00:04:15;;;;;;;5.68;1.00;;;20.20;61.20;;;;;;4946942;28;92769;-62
2021/11/06 00:06:44;;;;;;;3.10;0.90;;;20.20;61.20;;;;;;4946784;28;92830;-62
2021/11/06 00:09:10;;;;;;;2.67;0.95;;;20.20;61.30;;;;;;4947825;28;92701;-62
2021/11/06 00:11:37;;;;;;;3.63;1.15;;;20.20;61.30;;;;;;4946326;28;92909;-62
2021/11/06 00:14:03;;;;;;;2.70;1.10;;;20.10;61.20;;;;;;4929490;28;95860;-63
2021/11/06 00:16:29;;;;;;;2.85;0.90;;;20.10;61.30;;;;;;4928832;28;93177;-63
2021/11/06 00:18:54;;;;;;;6.10;0.85;;;20.10;61.30;;;;;;4928885;28;93174;-62
2021/11/06 00:21:20;;;;;;;2.70;0.88;;;20.10;61.40;;;;;;4945642;28;94016;-62
2021/11/06 00:23:46;;;;;;;1.73;0.90;;;20.10;61.40;;;;;;4947799;28;93815;-62
2021/11/06 00:26:12;;;;;;;1.85;0.75;;;20.10;61.60;;;;;;4947957;28;93234;-62
2021/11/06 00:28:37;;;;;;;1.88;0.75;;;20.10;61.40;;;;;;4947928;28;92193;-62
2021/11/06 00:31:03;;;;;;;1.88;0.80;;;20.10;61.40;;;;;;4946678;28;93268;-62
2021/11/06 00:33:28;;;;;;;3.05;1.30;;;20.10;61.50;;;;;;4947043;28;93554;-63
2021/11/06 00:35:54;;;;;;;2.65;1.10;;;20.10;61.50;;;;;;4947555;28;92867;-62
2021/11/06 00:38:20;;;;;;;1.73;0.60;;;20.00;61.50;;;;;;4948716;28;92243;-63
2021/11/06 00:40:46;;;;;;;3.38;0.80;;;20.00;61.50;;;;;;4948339;28;92198;-62
2021/11/06 00:43:14;;;;;;;2.30;0.80;;;20.10;61.70;;;;;;4945719;28;96171;-62
2021/11/06 00:45:39;;;;;;;2.10;1.10;;;20.00;61.50;;;;;;4946376;28;93965;-62
2021/11/06 00:48:05;;;;;;;3.05;1.13;;;20.00;61.60;;;;;;4944602;28;93444;-62
2021/11/06 00:50:31;;;;;;;1.92;0.90;;;20.00;61.60;;;;;;4946751;28;92704;-63
2021/11/06 00:53:00;;;;;;;1.88;0.98;;;20.00;61.60;;;;;;4928733;28;95780;-62
2021/11/06 00:55:25;;;;;;;2.83;0.90;;;20.00;61.70;;;;;;4947409;28;92859;-62
2021/11/06 00:57:51;;;;;;;2.95;0.80;;;20.00;61.70;;;;;;4946842;28;92877;-62
2021/11/06 01:00:19;;;;;;;3.17;0.80;;;20.00;61.70;;;;;;4945973;28;92313;-63
2021/11/06 01:02:46;;;;;;;2.47;0.60;;;20.00;61.80;;;;;;4945403;28;93761;-63
2021/11/06 01:05:16;;;;;;;2.58;0.80;;;19.90;61.70;;;;;;4945089;28;96149;-62
2021/11/06 01:07:43;;;;;;;2.28;0.60;;;20.00;61.80;;;;;;4946217;28;93035;-62
2021/11/06 01:10:13;;;;;;;3.08;1.45;;;19.90;61.80;;;;;;4943726;28;93750;-62
2021/11/06 01:12:39;;;;;;;2.08;0.70;;;19.90;61.80;;;;;;4945774;28;92692;-63
2021/11/06 01:15:06;;;;;;;2.58;0.95;;;19.90;61.80;;;;;;4943858;28;94111;-62
2021/11/06 01:17:32;;;;;;;2.17;1.02;;;19.90;61.90;;;;;;4945329;28;92434;-62
2021/11/06 01:19:58;;;;;;;2.03;0.80;;;19.90;61.90;;;;;;4946203;28;93378;-62
2021/11/06 01:22:24;;;;;;;1.98;1.00;;;19.90;61.90;;;;;;4946328;28;93281;-62
2021/11/06 01:24:49;;;;;;;1.80;0.80;;;19.90;61.90;;;;;;4946655;28;92606;-63
2021/11/06 01:27:15;;;;;;;1.95;0.80;;;19.80;61.90;;;;;;4946172;28;92635;-62
2021/11/06 01:29:41;;;;;;;3.20;1.23;;;19.80;61.90;;;;;;4927529;28;93018;-62
2021/11/06 01:32:10;;;;;;;1.50;0.73;;;19.80;62.00;;;;;;4945388;28;93090;-62
2021/11/06 01:34:36;;;;;;;3.55;0.70;;;19.80;62.00;;;;;;4944657;28;93594;-63
2021/11/06 01:37:04;;;;;;;1.67;0.70;;;19.80;62.10;;;;;;4928778;28;92782;-63
2021/11/06 01:39:29;;;;;;;2.22;0.80;;;19.80;62.10;;;;;;4944428;28;93045;-63
2021/11/06 01:41:56;;;;;;;1.98;0.73;;;19.80;62.10;;;;;;4945421;28;93301;-63
2021/11/06 01:44:24;;;;;;;1.45;0.63;;;19.80;62.10;;;;;;4944649;28;95903;-63
2021/11/06 01:46:50;;;;;;;2.38;1.00;;;19.80;62.10;;;;;;4946470;28;93319;-63
2021/11/06 01:49:20;;;;;;;2.28;0.68;;;19.80;62.10;;;;;;4945653;28;93269;-63
2021/11/06 01:51:47;;;;;;;1.38;0.63;;;19.80;62.10;;;;;;4945943;28;92271;-63
2021/11/06 01:54:13;;;;;;;1.52;0.70;;;19.80;62.10;;;;;;4946478;28;92864;-63
2021/11/06 01:56:38;;;;;;;2.42;0.93;;;19.80;62.10;;;;;;4929142;28;93255;-63
2021/11/06 01:59:04;;;;;;;1.45;0.80;;;19.70;62.10;;;;;;4948706;28;93186;-63
2021/11/06 02:01:30;;;;;;;1.65;0.77;;;19.70;62.10;;;;;;4950122;28;92730;-63
2021/11/06 02:03:55;;;;;;;2.63;0.90;;;19.70;62.10;;;;;;4949003;28;93188;-63
2021/11/06 02:06:21;;;;;;;1.67;0.70;;;19.70;62.20;;;;;;4931275;28;92875;-63
2021/11/06 02:08:46;;;;;;;2.00;0.85;;;19.70;62.30;;;;;;4948709;28;92708;-63
2021/11/06 02:11:12;;;;;;;1.67;0.90;;;19.70;62.30;;;;;;4947779;28;92740;-63
2021/11/06 02:13:38;;;;;;;2.90;0.90;;;19.70;62.40;;;;;;4949442;28;93848;-62
2021/11/06 02:16:04;;;;;;;2.90;0.82;;;19.60;62.30;;;;;;4950056;28;91873;-62
2021/11/06 02:18:29;;;;;;;4.53;1.00;;;19.70;62.40;;;;;;4930651;28;92974;-63
2021/11/06 02:21:07;;;;;;;2.63;0.85;;;19.70;62.40;;;;;;4946367;28;95965;-62
2021/11/06 02:23:38;;;;;;;3.05;0.75;;;19.70;62.50;;;;;;4946275;28;95597;-62
2021/11/06 02:26:08;;;;;;;2.03;0.70;;;19.60;62.40;;;;;;4949235;28;92903;-62
2021/11/06 02:28:34;;;;;;;1.70;0.80;;;19.70;62.50;;;;;;4930822;28;93148;-63
2021/11/06 02:31:00;;;;;;;3.15;0.68;;;19.70;62.50;;;;;;4948980;28;93304;-63
2021/11/06 02:33:26;;;;;;;1.80;0.88;;;19.60;62.50;;;;;;4946699;28;94046;-62
2021/11/06 02:35:52;;;;;;;2.97;1.00;;;19.60;62.50;;;;;;4949050;28;93097;-63
2021/11/06 02:38:18;;;;;;;3.20;0.95;;;19.70;62.60;;;;;;4931326;28;92170;-63
2021/11/06 02:40:44;;;;;;;2.25;0.73;;;19.60;62.50;;;;;;4947697;28;95136;-63
2021/11/06 02:43:10;;;;;;;1.80;0.65;;;19.60;62.50;;;;;;4948539;28;92830;-62
2021/11/06 02:45:37;;;;;;;1.73;0.73;;;19.60;62.60;;;;;;4949583;28;92537;-62
2021/11/06 02:48:04;;;;;;;1.48;1.00;;;19.60;62.60;;;;;;4948608;28;93713;-62
2021/11/06 02:50:30;;;;;;;1.45;0.80;;;19.60;62.60;;;;;;4948666;28;92991;-63
2021/11/06 02:52:57;;;;;;;1.35;0.70;;;19.60;62.60;;;;;;4930237;28;96038;-62
2021/11/06 02:55:22;;;;;;;2.17;0.77;;;19.50;63.10;;;;;;4947153;28;92841;-62
2021/11/06 02:57:49;;;;;;;2.60;0.60;;;19.50;62.60;;;;;;4948032;28;92802;-63
2021/11/06 03:00:16;;;;;;;1.65;0.90;;;19.50;62.60;;;;;;4930963;28;96188;-62
2021/11/06 03:02:42;;;;;;;2.40;0.93;;;19.50;62.60;;;;;;4930657;28;93394;-63
2021/11/06 03:05:11;;;;;;;1.42;0.70;;;19.50;62.60;;;;;;4948039;28;91719;-63
2021/11/06 03:07:37;;;;;;;1.20;0.60;;;19.50;62.60;;;;;;4947790;28;92701;-63
2021/11/06 03:10:05;;;;;;;1.77;0.70;;;19.50;62.60;;;;;;4929492;28;95192;-62
2021/11/06 03:12:31;;;;;;;2.65;0.73;;;19.50;62.60;;;;;;4945869;28;96142;-62
2021/11/06 03:14:57;;;;;;;1.73;0.85;;;19.50;62.60;;;;;;4947646;28;92799;-63
2021/11/06 03:17:23;;;;;;;3.33;0.70;;;19.50;62.70;;;;;;4946325;28;92973;-63
2021/11/06 03:19:49;;;;;;;1.98;0.90;;;19.50;62.60;;;;;;4948163;28;93105;-63
2021/11/06 03:22:14;;;;;;;2.97;0.80;;;19.50;62.70;;;;;;4948344;28;93123;-63
2021/11/06 03:24:40;;;;;;;1.83;0.68;;;19.50;62.70;;;;;;4947684;28;93177;-63
2021/11/06 03:27:06;;;;;;;2.85;0.90;;;19.40;62.60;;;;;;4929869;28;92731;-63
2021/11/06 03:29:32;;;;;;;1.95;0.80;;;19.40;62.60;;;;;;4945644;28;95682;-63
2021/11/06 03:31:58;;;;;;;1.55;0.65;;;19.40;62.60;;;;;;4945993;28;93273;-63
2021/11/06 03:34:25;;;;;;;1.08;0.70;;;19.40;62.60;;;;;;4948289;28;93410;-63
2021/11/06 03:36:51;;;;;;;1.35;0.52;;;19.40;62.60;;;;;;4945390;28;94073;-62
2021/11/06 03:39:17;;;;;;;1.38;0.85;;;19.40;62.60;;;;;;4945158;28;96189;-63
2021/11/06 03:41:42;;;;;;;2.45;1.23;;;19.40;62.60;;;;;;4946980;28;93315;-63
2021/11/06 03:44:08;;;;;;;1.83;0.73;;;19.40;62.70;;;;;;4948148;28;92388;-63
2021/11/06 03:46:35;;;;;;;3.22;0.95;;;19.40;62.70;;;;;;4948220;28;92156;-63
2021/11/06 03:49:00;;;;;;;0.95;0.73;;;19.40;62.70;;;;;;4946443;28;94661;-63
2021/11/06 03:51:26;;;;;;;1.45;0.80;;;19.40;62.70;;;;;;4946476;28;92687;-63
2021/11/06 03:53:52;;;;;;;2.22;0.70;;;19.40;62.70;;;;;;4946912;28;91523;-62
2021/11/06 03:56:18;;;;;;;1.85;0.60;;;19.40;62.70;;;;;;4948044;28;93531;-63
2021/11/06 03:58:44;;;;;;;2.58;0.75;;;19.40;62.70;;;;;;4945360;28;94347;-63
2021/11/06 04:01:10;;;;;;;1.60;0.80;;;19.30;62.70;;;;;;4946959;28;93959;-63
2021/11/06 04:03:36;;;;;;;1.85;0.80;;;19.30;62.70;;;;;;4948283;28;92876;-63
2021/11/06 04:06:02;;;;;;;2.97;0.75;;;19.30;62.70;;;;;;4948520;28;92669;-63
2021/11/06 04:08:28;;;;;;;0.88;0.70;;;19.30;62.70;;;;;;4945904;28;96496;-63
2021/11/06 04:10:56;;;;;;;1.00;0.55;;;19.30;62.70;;;;;;4945921;28;94882;-63
2021/11/06 04:13:22;;;;;;;3.58;0.90;;;19.30;62.70;;;;;;4948663;28;93237;-62
2021/11/06 04:15:48;;;;;;;2.65;0.85;;;19.30;63.30;;;;;;4948030;28;92174;-63
2021/11/06 04:18:14;;;;;;;1.83;0.85;;;19.30;62.70;;;;;;4947329;28;92484;-63
2021/11/06 04:20:42;;;;;;;1.70;0.65;;;19.30;62.70;;;;;;4947518;28;92744;-63
2021/11/06 04:23:08;;;;;;;1.50;0.77;;;19.20;62.70;;;;;;4947981;28;93157;-63
2021/11/06 04:25:33;;;;;;;1.58;0.80;;;19.30;62.80;;;;;;4929533;28;94443;-63
2021/11/06 04:27:59;;;;;;;2.50;0.60;;;19.30;62.80;;;;;;4947539;28;92739;-63
2021/11/06 04:30:25;;;;;;;1.55;0.50;;;19.30;62.80;;;;;;4947762;28;92938;-63
2021/11/06 04:32:51;;;;;;;2.13;0.75;;;19.30;62.80;;;;;;4947676;28;92702;-63
2021/11/06 04:35:16;;;;;;;1.85;0.60;;;19.30;62.80;;;;;;4946485;28;92608;-63
2021/11/06 04:37:42;;;;;;;2.53;0.90;;;19.30;62.80;;;;;;4946204;28;92505;-63
2021/11/06 04:40:10;;;;;;;3.08;0.98;;;19.30;62.90;;;;;;4947543;28;94205;-63
2021/11/06 04:42:36;;;;;;;1.98;0.95;;;19.20;62.80;;;;;;4948127;28;91797;-63
2021/11/06 04:45:03;;;;;;;3.30;1.05;;;19.20;62.80;;;;;;4947718;28;93436;-63
2021/11/06 04:47:29;;;;;;;1.70;0.77;;;19.20;62.80;;;;;;4947835;28;92820;-63
2021/11/06 04:49:55;;;;;;;2.17;0.80;;;19.20;62.80;;;;;;4946679;28;93530;-62
2021/11/06 04:52:21;;;;;;;1.88;0.85;;;19.20;62.80;;;;;;4947581;28;93189;-63
2021/11/06 04:54:46;;;;;;;2.70;0.70;;;19.20;62.90;;;;;;4947724;28;92715;-63
2021/11/06 04:57:12;;;;;;;2.55;0.70;;;19.20;62.80;;;;;;4947242;28;93115;-63
2021/11/06 04:59:38;;;;;;;2.67;0.80;;;19.20;62.90;;;;;;4946029;28;93465;-62
2021/11/06 05:02:03;;;;;;;2.08;0.80;;;19.20;62.80;;;;;;4946482;28;92615;-62
2021/11/06 05:04:29;;;;;;;2.35;0.82;;;19.20;62.80;;;;;;4947014;28;93105;-63
2021/11/06 05:06:57;;;;;;;2.38;1.00;;;19.20;62.90;;;;;;4946981;28;92370;-62
2021/11/06 05:09:23;;;;;;;1.67;0.85;;;19.10;62.80;;;;;;4927963;28;93376;-62
2021/11/06 05:11:49;;;;;;;2.15;0.73;;;19.10;62.80;;;;;;4945089;28;92933;-62
2021/11/06 05:14:15;;;;;;;3.53;0.70;;;19.10;62.80;;;;;;4927703;28;93855;-63
2021/11/06 05:16:41;;;;;;;3.08;0.60;;;19.10;62.80;;;;;;4943519;28;96398;-63
2021/11/06 05:19:06;;;;;;;0.75;0.52;;;19.10;62.80;;;;;;4928868;28;94489;-63
2021/11/06 05:21:38;;;;;;;1.88;0.70;;;19.10;62.80;;;;;;4947334;28;92920;-63
2021/11/06 05:24:08;;;;;;;2.92;0.88;;;19.10;62.80;;;;;;4946358;28;93252;-63
2021/11/06 05:26:36;;;;;;;1.70;0.70;;;19.10;62.80;;;;;;4946508;28;92865;-63
2021/11/06 05:29:09;;;;;;;1.08;0.60;;;19.10;62.80;;;;;;4944634;28;93155;-62
2021/11/06 05:31:37;;;;;;;1.30;0.68;;;19.10;62.80;;;;;;4945764;28;92322;-63
2021/11/06 05:34:05;;;;;;;1.73;0.90;;;19.10;62.90;;;;;;4948026;28;92241;-62
2021/11/06 05:36:30;;;;;;;2.08;0.88;;;19.10;62.80;;;;;;4948650;28;93673;-63
2021/11/06 05:38:56;;;;;;;1.10;0.73;;;19.00;62.80;;;;;;4949008;28;93636;-63
2021/11/06 05:41:22;;;;;;;1.02;0.70;;;19.10;62.90;;;;;;4949760;28;93094;-63
2021/11/06 05:43:48;;;;;;;1.38;0.63;;;19.00;62.80;;;;;;4950368;28;92750;-62
2021/11/06 05:46:14;;;;;;;1.15;0.60;;;19.00;62.80;;;;;;4950571;28;93142;-62
2021/11/06 05:48:39;;;;;;;0.98;0.52;;;19.00;62.80;;;;;;4949712;28;92695;-63
2021/11/06 05:51:05;;;;;;;3.13;0.68;;;19.00;62.80;;;;;;4949796;28;92521;-62
2021/11/06 05:53:31;;;;;;;1.88;0.93;;;19.00;62.80;;;;;;4949982;28;93378;-62
2021/11/06 05:55:58;;;;;;;1.23;0.68;;;19.00;62.80;;;;;;4931631;28;95653;-63
2021/11/06 05:58:23;;;;;;;5.90;1.15;;;19.00;62.80;;;;;;4948004;28;95302;-63
2021/11/06 06:00:49;;;;;;;1.25;0.63;;;19.00;62.80;;;;;;4949814;28;93097;-63
2021/11/06 06:03:15;;;;;;;2.30;1.00;;;19.00;62.80;;;;;;4931590;28;93500;-62
2021/11/06 06:05:40;;;;;;;0.90;0.70;;;19.00;62.80;;;;;;4930053;28;96406;-62
2021/11/06 06:08:06;;;;;;;1.10;0.60;;;19.00;62.80;;;;;;4948110;28;93278;-62
2021/11/06 06:10:32;;;;;;;1.75;0.60;;;19.00;62.80;;;;;;4930941;28;93334;-62
2021/11/06 06:12:58;;;;;;;1.98;0.75;;;18.90;62.80;;;;;;4948711;28;92258;-62
2021/11/06 06:15:24;;;;;;;2.35;0.82;;;19.00;62.80;;;;;;4931033;28;94928;-62
2021/11/06 06:17:51;;;;;;;1.60;0.90;;;18.90;62.80;;;;;;4948935;28;92801;-62
2021/11/06 06:20:18;;;;;;;2.40;0.93;;;18.90;62.80;;;;;;4947645;28;91885;-62
2021/11/06 06:22:45;;;;;;;1.42;0.82;;;18.90;62.80;;;;;;4948715;28;92484;-63
2021/11/06 06:25:12;;;;;;;1.60;0.90;;;18.90;62.80;;;;;;4949175;28;93205;-62
2021/11/06 06:27:39;;;;;;;5.30;0.88;;;18.90;62.80;;;;;;4947931;28;93898;-61
2021/11/06 06:30:08;;;;;;;1.98;0.65;;;18.90;62.80;;;;;;4946713;28;93208;-62
2021/11/06 06:32:33;;;;;;;1.33;0.73;;;18.90;62.80;;;;;;4948693;28;92838;-61
2021/11/06 06:34:59;;;;;;;2.60;0.65;;;18.90;62.80;;;;;;4948934;28;94101;-62
2021/11/06 06:37:25;;;;;;;2.25;0.80;;;18.90;62.90;;;;;;4948385;28;92499;-62
2021/11/06 06:39:51;;;;;;;1.48;0.55;;;18.90;62.80;;;;;;4949767;28;93061;-62
2021/11/06 06:42:17;;;;;;;1.63;0.70;;;18.90;62.90;;;;;;4948984;28;93299;-62
2021/11/06 06:44:43;;;;;;;2.35;0.68;;;18.90;62.90;;;;;;4948066;28;92631;-62
2021/11/06 06:47:12;;;;;;;1.65;0.50;;;18.90;62.90;;;;;;4949591;28;92933;-62
2021/11/06 06:49:38;;;;;;;1.27;0.70;;;18.90;62.90;;;;;;4949522;28;93007;-63
2021/11/06 06:52:04;;;;;;;3.92;0.80;;;18.80;62.90;;;;;;4948461;28;93809;-63
2021/11/06 06:54:32;;;;;;;3.35;0.90;;;18.80;63.10;;;;;;4931059;28;96317;-62
2021/11/06 06:56:58;;;;;;;3.95;0.75;;;18.80;63.30;;;;;;4949380;28;93281;-62
2021/11/06 06:59:24;;;;;;;1.65;0.82;;;18.80;63.20;;;;;;4947562;28;93200;-62
2021/11/06 07:01:49;;;;;;;2.20;0.68;;;18.90;63.30;;;;;;4949347;28;93177;-60
2021/11/06 07:04:15;;;;;;;2.58;0.80;;;18.80;63.20;;;;;;4948844;28;93205;-61
2021/11/06 07:06:41;;;;;;;1.48;0.73;;;18.80;63.20;;;;;;4948593;28;93205;-62
2021/11/06 07:09:07;;;;;;;5.07;0.77;;;18.80;63.20;;;;;;4948982;28;91830;-63
2021/11/06 07:11:33;;;;;;;1.50;0.77;;;18.80;63.10;;;;;;4948438;28;92621;-62
2021/11/06 07:13:58;;;;;;;1.67;0.70;;;18.80;63.10;;;;;;4948282;28;93082;-62
2021/11/06 07:16:24;;;;;;;1.63;0.60;;;18.80;63.10;;;;;;4947457;28;93610;-62
2021/11/06 07:18:50;;;;;;;4.82;0.80;;;18.90;63.00;;;;;;4948364;28;92797;-62
2021/11/06 07:21:15;;;;;;;1.38;0.70;;;18.90;62.90;;;;;;4947658;28;92491;-63
2021/11/06 07:23:41;;;;;;;2.35;0.80;;;19.00;62.80;;;;;;4946625;28;93291;-65
2021/11/06 07:26:07;;;;;;;4.72;0.95;;;19.00;62.40;;;;;;4948288;28;93213;-62
2021/11/06 07:28:33;;;;;;;3.67;1.27;;;19.10;62.10;;;;;;4947902;28;92657;-63
2021/11/06 07:30:59;;;;;;;6.70;2.00;;;19.20;61.80;;;;;;4929039;28;92921;-62
2021/11/06 07:33:25;;;;;;;6.43;1.88;;;19.30;61.40;;;;;;4945903;28;94094;-63
2021/11/06 07:35:51;;;;;;;5.70;1.88;;;19.30;61.00;;;;;;4929963;28;95640;-63
2021/11/06 07:38:17;;;;;;;9.05;2.50;;;19.40;60.70;;;;;;4948952;28;93556;-62
2021/11/06 07:40:44;;;;;;;6.55;1.58;;;19.50;60.40;;;;;;4947144;28;93084;-63
2021/11/06 07:43:11;;;;;;;6.35;1.67;;;19.60;60.10;;;;;;4947322;28;94439;-62
2021/11/06 07:45:37;;;;;;;4.90;1.85;;;19.60;59.90;;;;;;4944888;28;95875;-63
2021/11/06 07:48:03;;;;;;;3.50;1.55;;;19.60;59.70;;;;;;4946971;28;93281;-63
2021/11/06 07:50:29;;;;;;;7.07;2.05;;;19.60;59.50;;;;;;4930095;28;93141;-62
2021/11/06 07:52:54;;;;;;;10.05;2.60;;;19.70;59.50;;;;;;4947548;28;92825;-63
2021/11/06 07:55:20;;;;;;;18.48;3.28;;;19.70;59.40;;;;;;4946893;28;92898;-63
2021/11/06 07:57:46;;;;;;;20.42;3.67;;;19.70;59.20;;;;;;4945623;28;92356;-63
2021/11/06 08:00:14;;;;;;;17.65;4.57;;;19.70;59.60;;;;;;4946199;28;92827;-63
2021/11/06 08:02:41;;;;;;;18.98;4.60;;;19.70;59.10;;;;;;4930417;28;95969;-63
2021/11/06 08:05:13;;;;;;;18.05;3.95;;;19.80;59.00;;;;;;4945783;28;94257;-63
2021/11/06 08:07:40;;;;;;;18.25;3.35;;;19.70;58.90;;;;;;4929197;28;92603;-63
2021/11/06 08:10:06;;;;;;;23.02;4.53;;;19.70;58.90;;;;;;4946135;28;93495;-63
2021/11/06 08:12:33;;;;;;;26.13;4.55;;;19.70;58.80;;;;;;4945914;28;93878;-63
2021/11/06 08:15:00;;;;;;;19.70;3.85;;;19.70;58.80;;;;;;4947142;28;94436;-63
2021/11/06 08:17:25;;;;;;;18.40;4.53;;;19.70;58.90;;;;;;4947965;28;92854;-63
2021/11/06 08:19:51;;;;;;;19.75;4.03;;;19.70;58.90;;;;;;4947680;28;93008;-63
2021/11/06 08:22:17;;;;;;;24.45;4.97;;;19.70;59.00;;;;;;4929649;28;95357;-62
2021/11/06 08:24:43;;;;;;;19.88;4.55;;;19.70;59.30;;;;;;4937629;28;94334;-63
2021/11/06 08:27:08;;;;;;;15.00;3.97;;;19.70;59.20;;;;;;4927995;28;92404;-61
2021/11/06 08:29:35;;;;;;;18.88;4.75;;;19.70;59.20;;;;;;4943525;28;93254;-62
2021/11/06 08:32:01;;;;;;;22.80;3.92;;;19.70;59.30;;;;;;4927971;28;96180;-65
2021/11/06 08:34:28;;;;;;;15.10;3.85;;;19.80;59.30;;;;;;4945425;28;92857;-61
2021/11/06 08:36:57;;;;;;;20.35;3.45;;;19.70;59.30;;;;;;4919811;28;93404;-65
2021/11/06 08:39:25;;;;;;;14.32;4.25;;;19.70;59.30;;;;;;4964033;28;92570;-63
2021/11/06 08:41:52;;;;;;;19.48;3.58;;;19.70;59.30;;;;;;4946735;28;96389;-62
2021/11/06 08:44:19;;;;;;;16.35;4.10;;;19.70;59.30;;;;;;4947058;28;96173;-62
2021/11/06 08:46:47;;;;;;;19.10;3.90;;;19.70;59.30;;;;;;4947991;28;92765;-64
2021/11/06 08:49:14;;;;;;;18.25;3.22;;;19.70;59.30;;;;;;4966451;28;93233;-63
2021/11/06 08:51:53;;;;;;;15.52;2.88;;;19.70;59.20;;;;;;4947864;28;96039;-62
2021/11/06 08:54:20;;;;;;;20.10;3.30;;;19.70;59.30;;;;;;4947230;28;95957;-62
2021/11/06 08:56:47;;;;;;;12.70;3.22;;;19.70;59.40;;;;;;4966987;28;92555;-63
2021/11/06 08:59:20;;;;;;;12.85;3.58;;;19.70;59.30;;;;;;4948264;28;93427;-64
2021/11/06 09:01:46;;;;;;;20.83;3.70;;;19.70;58.70;;;;;;4948140;28;94739;-62
2021/11/06 09:04:12;;;;;;;16.80;2.95;;;19.80;58.30;;;;;;4966008;28;92932;-63
2021/11/06 09:06:39;;;;;;;22.00;4.22;;;19.80;57.90;;;;;;4944834;28;93072;-66
2021/11/06 09:09:08;;;;;;;24.83;4.57;;;19.90;57.70;;;;;;4947657;28;92572;-62
2021/11/06 09:11:36;;;;;;;29.77;3.95;;;19.90;57.50;;;;;;4948009;28;94732;-64
2021/11/06 09:14:02;;;;;;;27.52;4.47;;;20.00;57.40;;;;;;4965508;28;92485;-64
2021/11/06 09:16:28;;;;;;;26.95;4.90;;;20.00;57.30;;;;;;4963740;28;92661;-62
2021/11/06 09:18:53;;;;;;;27.40;4.97;;;20.10;57.20;;;;;;4937467;28;93785;-61
2021/11/06 09:21:21;;;;;;;24.77;4.55;;;20.10;57.10;;;;;;4963022;28;94077;-63
2021/11/06 09:23:50;;;;;;;22.08;4.97;;;20.10;57.00;;;;;;4963526;28;95891;-61
2021/11/06 09:26:19;;;;;;;28.85;4.68;;;20.20;57.10;;;;;;4964819;28;92639;-61
2021/11/06 09:28:47;;;;;;;27.70;4.45;;;20.20;57.00;;;;;;4946701;28;92842;-64
2021/11/06 09:31:15;;;;;;;19.30;3.90;;;20.20;56.90;;;;;;4964056;28;93884;-61
2021/11/06 09:33:42;;;;;;;19.13;4.38;;;20.20;56.90;;;;;;4963308;28;96189;-63
2021/11/06 09:36:09;;;;;;;13.27;3.60;;;20.20;56.80;;;;;;4949101;28;91782;-60
2021/11/06 09:38:35;;;;;;;21.73;4.10;;;20.20;56.90;;;;;;4948318;28;93484;-63
2021/11/06 09:41:07;;;;;;;18.85;3.55;;;20.20;57.10;;;;;;4962320;28;95424;-68
2021/11/06 09:43:34;;;;;;;21.35;3.47;;;20.20;57.20;;;;;;4964889;28;93916;-61
2021/11/06 09:46:00;;;;;;;17.35;3.78;;;20.20;57.50;;;;;;4948339;28;93190;-65
2021/11/06 09:48:28;;;;;;;18.45;3.70;;;20.20;57.60;;;;;;4940213;28;92301;-63
2021/11/06 09:50:57;;;;;;;16.65;4.43;;;20.20;57.60;;;;;;4946955;28;95953;-61
2021/11/06 09:53:27;;;;;;;14.77;3.28;;;20.20;57.90;;;;;;4964870;28;92975;-61
2021/11/06 09:55:53;;;;;;;23.48;3.83;;;20.20;58.10;;;;;;4964515;28;93183;-61
2021/11/06 09:58:19;;;;;;;21.90;3.78;;;20.20;58.80;;;;;;4956690;28;92612;-60
2021/11/06 10:00:44;;;;;;;15.63;3.65;;;20.30;59.30;;;;;;4947667;28;95721;-61
2021/11/06 10:03:11;;;;;;;20.52;3.90;;;20.30;59.30;;;;;;4965682;28;92441;-61
2021/11/06 10:05:48;;;;;;;18.23;3.03;;;20.30;59.30;;;;;;4963406;28;92529;-61
2021/11/06 10:08:24;;;;;;;10.35;3.17;;;20.30;59.30;;;;;;4962636;28;93257;-60
2021/11/06 10:10:53;;;;;;;19.15;3.53;;;20.30;59.40;;;;;;4963353;28;96659;-61
2021/11/06 10:13:20;;;;;;;15.80;2.85;;;20.30;59.30;;;;;;4964582;28;93309;-61
2021/11/06 10:15:49;;;;;;;12.55;2.83;;;20.30;59.30;;;;;;4947860;28;92817;-61
2021/11/06 10:18:20;;;;;;;13.38;2.38;;;20.30;59.10;;;;;;4962508;28;92842;-60
2021/11/06 10:20:49;;;;;;;13.32;2.53;;;20.30;59.10;;;;;;4949574;28;96493;-63
2021/11/06 10:23:15;;;;;;;11.88;2.92;;;20.30;59.10;;;;;;4949857;28;97290;-65
2021/11/06 10:25:41;;;;;;;7.43;2.30;;;20.30;59.00;;;;;;4969145;28;92161;-62
2021/11/06 10:28:15;;;;;;;9.65;2.30;;;20.30;58.90;;;;;;4966618;28;92816;-61
2021/11/06 10:30:43;;;;;;;11.15;2.70;;;20.30;58.70;;;;;;4967681;28;94340;-65
2021/11/06 10:33:12;;;;;;;7.57;2.42;;;20.30;58.60;;;;;;4965511;28;95164;-62
2021/11/06 10:35:47;;;;;;;9.30;2.28;;;20.30;58.50;;;;;;4943321;28;93273;-64
2021/11/06 10:38:27;;;;;;;11.10;1.90;;;20.30;58.40;;;;;;4949713;28;92279;-60
2021/11/06 10:41:06;;;;;;;8.57;2.22;;;20.30;58.30;;;;;;4967177;28;92792;-61
2021/11/06 10:43:35;;;;;;;7.18;2.05;;;20.40;58.20;;;;;;4968134;28;93150;-60
2021/11/06 10:46:04;;;;;;;8.60;1.88;;;20.40;58.10;;;;;;4967231;28;93460;-60
2021/11/06 10:48:33;;;;;;;8.40;2.03;;;20.40;58.00;;;;;;4967654;28;92591;-61
2021/11/06 10:51:09;;;;;;;8.95;1.83;;;20.30;58.00;;;;;;4966312;28;93972;-65
2021/11/06 10:53:48;;;;;;;9.98;2.22;;;20.40;58.00;;;;;;4967381;28;92407;-61
2021/11/06 10:56:14;;;;;;;6.60;1.70;;;20.30;57.80;;;;;;4968246;28;92228;-65
2021/11/06 10:58:41;;;;;;;8.02;1.73;;;20.40;57.80;;;;;;4948076;28;93991;-61
2021/11/06 11:01:13;;;;;;;6.32;1.83;;;20.30;57.70;;;;;;4948644;28;95715;-60
2021/11/06 11:03:45;;;;;;;5.22;1.63;;;20.30;57.70;;;;;;4964803;28;95058;-65
2021/11/06 11:06:17;;;;;;;7.20;1.67;;;20.30;57.70;;;;;;4965223;28;92693;-62
2021/11/06 11:08:54;;;;;;;6.95;2.25;;;20.30;57.70;;;;;;4966696;28;92459;-64
2021/11/06 11:11:22;;;;;;;5.70;1.20;;;20.30;57.70;;;;;;4965020;28;96547;-61
2021/11/06 11:13:56;;;;;;;6.65;1.88;;;20.30;57.70;;;;;;4967165;28;92721;-63
2021/11/06 11:16:23;;;;;;;7.03;1.52;;;20.30;57.80;;;;;;4949952;28;91465;-61
2021/11/06 11:18:52;;;;;;;5.15;1.52;;;20.40;57.80;;;;;;4967466;28;93025;-60
2021/11/06 11:21:27;;;;;;;7.20;1.30;;;20.40;57.90;;;;;;4966005;28;95668;-62
2021/11/06 11:23:57;;;;;;;8.88;1.98;;;20.40;57.80;;;;;;4964862;28;94469;-63
2021/11/06 11:26:30;;;;;;;6.30;1.30;;;20.40;57.80;;;;;;4937366;28;93302;-64
2021/11/06 11:28:56;;;;;;;6.23;1.37;;;20.40;57.80;;;;;;4948427;28;93772;-60
2021/11/06 11:31:22;;;;;;;6.90;1.80;;;20.40;57.80;;;;;;4963893;28;95422;-65
2021/11/06 11:33:52;;;;;;;7.18;1.73;;;20.40;57.80;;;;;;4948671;28;96151;-62
2021/11/06 11:36:21;;;;;;;5.85;1.25;;;20.40;57.80;;;;;;4965374;28;92711;-63
2021/11/06 11:38:47;;;;;;;4.25;1.50;;;20.40;57.80;;;;;;4967225;28;93031;-61
2021/11/06 11:41:43;;;;;;;6.53;1.60;;;20.40;57.80;;;;;;4948928;28;93940;-62
2021/11/06 11:44:30;;;;;;;3.67;1.38;;;20.40;57.70;;;;;;4948318;28;96691;-63
2021/11/06 11:47:06;;;;;;;4.60;1.45;;;20.40;57.70;;;;;;4958988;28;92306;-60
2021/11/06 11:49:42;;;;;;;5.30;1.30;;;20.40;57.70;;;;;;4947788;28;94058;-60
2021/11/06 11:52:27;;;;;;;10.13;1.60;;;20.40;57.70;;;;;;4963640;28;93436;-65
2021/11/06 11:55:01;;;;;;;5.28;1.27;;;20.50;57.70;;;;;;4938716;28;97327;-61
2021/11/06 11:57:27;;;;;;;4.03;1.33;;;20.50;57.70;;;;;;4965769;28;93462;-64
2021/11/06 11:59:53;;;;;;;5.28;1.25;;;20.50;57.60;;;;;;4948261;28;92446;-59
2021/11/06 12:02:23;;;;;;;7.55;1.70;;;20.50;57.70;;;;;;4965214;28;93395;-60
2021/11/06 12:05:20;;;;;;;5.15;1.25;;;20.50;57.70;;;;;;4947108;28;95774;-60
2021/11/06 12:07:47;;;;;;;3.55;1.10;;;20.50;58.20;;;;;;4965530;28;92561;-61
2021/11/06 12:10:28;;;;;;;5.43;1.20;;;20.50;57.70;;;;;;4946569;28;92241;-60
2021/11/06 12:12:54;;;;;;;7.22;1.65;;;20.50;57.70;;;;;;4964834;28;93255;-62
2021/11/06 12:15:20;;;;;;;4.00;1.77;;;20.50;57.80;;;;;;4963717;28;96000;-60
2021/11/06 12:17:46;;;;;;;7.25;1.58;;;20.50;57.70;;;;;;4965363;28;92246;-60
2021/11/06 12:20:27;;;;;;;8.38;1.30;;;20.50;57.70;;;;;;4947052;28;93405;-64
2021/11/06 12:22:53;;;;;;;4.55;1.35;;;20.50;57.70;;;;;;4962272;28;96298;-60
2021/11/06 12:25:21;;;;;;;3.30;1.48;;;20.50;57.80;;;;;;4965086;28;93332;-60
2021/11/06 12:27:53;;;;;;;4.03;1.35;;;20.50;57.70;;;;;;4947221;28;92883;-64
2021/11/06 12:30:31;;;;;;;5.18;1.55;;;20.50;57.70;;;;;;4964259;28;93585;-60
2021/11/06 12:32:58;;;;;;;4.63;1.20;;;20.60;57.70;;;;;;4965455;28;94150;-61
2021/11/06 12:35:26;;;;;;;3.58;1.33;;;20.50;57.70;;;;;;4960828;28;93417;-63
2021/11/06 12:37:57;;;;;;;3.40;1.42;;;20.60;57.80;;;;;;4946326;28;93685;-63
2021/11/06 12:40:34;;;;;;;4.32;1.17;;;20.60;57.80;;;;;;4962752;28;94046;-64
2021/11/06 12:43:08;;;;;;;5.03;1.25;;;20.60;57.80;;;;;;4964689;28;93301;-64
2021/11/06 12:45:37;;;;;;;4.93;1.50;;;20.60;57.90;;;;;;4964308;28;92984;-64
2021/11/06 12:48:16;;;;;;;6.13;1.52;;;20.60;58.00;;;;;;4963002;28;93112;-65